createdAt,value
2019-03-24T00:01:19.982Z,72.90
2019-03-24T00:02:52.766Z,72.60
2019-03-24T00:04:25.578Z,72.50
2019-03-24T00:05:58.371Z,72.50
2019-03-24T00:07:31.232Z,72.20
2019-03-24T00:09:06.201Z,72.50
2019-03-24T00:10:38.942Z,72.40
2019-03-24T00:12:11.742Z,72.20
2019-03-24T00:13:44.596Z,72.10
2019-03-24T00:15:25.805Z,72.60
2019-03-24T00:16:52.074Z,72.70
2019-03-24T00:18:24.886Z,72.40
2019-03-24T00:19:57.724Z,73.00
2019-03-24T00:21:30.538Z,72.90
2019-03-24T00:23:03.315Z,73.20
2019-03-24T00:24:36.108Z,73.00
2019-03-24T00:26:08.961Z,73.10
2019-03-24T00:27:41.764Z,72.90
2019-03-24T00:29:14.445Z,73.30
2019-03-24T00:30:47.218Z,73.20
2019-03-24T00:32:19.989Z,73.40
2019-03-24T00:33:52.700Z,73.20
2019-03-24T00:35:25.535Z,73.40
2019-03-24T00:36:58.332Z,72.60
2019-03-24T00:38:31.148Z,73.20
2019-03-24T00:40:04.177Z,73.10
2019-03-24T00:41:36.953Z,73.30
2019-03-24T00:43:09.741Z,73.40
2019-03-24T00:44:42.409Z,73.20
2019-03-24T00:46:15.233Z,73.70
2019-03-24T00:47:49.499Z,73.50
2019-03-24T00:49:22.459Z,73.90
2019-03-24T00:50:55.346Z,74.20
2019-03-24T00:52:28.205Z,73.90
2019-03-24T00:54:01.019Z,73.80
2019-03-24T00:55:33.655Z,73.60
2019-03-24T00:57:06.471Z,73.70
2019-03-24T00:58:39.275Z,73.80
2019-03-24T01:00:12.482Z,73.70
2019-03-24T01:01:45.300Z,73.50
2019-03-24T01:03:18.336Z,73.40
2019-03-24T01:04:51.176Z,73.70
2019-03-24T01:06:24.007Z,73.80
2019-03-24T01:07:56.710Z,73.90
2019-03-24T01:09:29.424Z,73.80
2019-03-24T01:11:02.321Z,74.00
2019-03-24T01:12:35.161Z,73.60
2019-03-24T01:14:07.953Z,74.20
2019-03-24T01:15:47.735Z,74.00
2019-03-24T01:17:15.507Z,73.70
2019-03-24T01:18:48.318Z,74.90
2019-03-24T01:20:21.139Z,74.30
2019-03-24T01:21:53.865Z,75.20
2019-03-24T01:23:26.716Z,74.60
2019-03-24T01:24:59.464Z,74.60
2019-03-24T01:26:32.268Z,74.90
2019-03-24T01:28:05.020Z,75.10
2019-03-24T01:29:37.815Z,74.70
2019-03-24T01:31:10.621Z,74.90
2019-03-24T01:32:43.299Z,74.60
2019-03-24T01:34:15.972Z,75.00
2019-03-24T01:35:48.816Z,74.80
2019-03-24T01:37:21.995Z,75.20
2019-03-24T01:38:54.753Z,74.70
2019-03-24T01:40:27.535Z,75.30
2019-03-24T01:42:00.340Z,75.10
2019-03-24T01:43:33.076Z,75.00
2019-03-24T01:45:07.494Z,75.10
2019-03-24T01:46:40.324Z,75.00
2019-03-24T01:48:13.180Z,75.90
2019-03-24T01:49:46.103Z,75.30
2019-03-24T01:51:18.805Z,75.00
2019-03-24T01:52:51.578Z,75.20
2019-03-24T01:54:24.365Z,75.30
2019-03-24T01:55:57.133Z,75.00
2019-03-24T01:57:29.800Z,75.20
2019-03-24T01:59:02.637Z,75.10
2019-03-24T02:00:35.426Z,75.30
2019-03-24T02:02:08.159Z,75.60
2019-03-24T02:03:40.935Z,76.50
2019-03-24T02:05:13.748Z,75.90
2019-03-24T02:06:46.534Z,75.70
2019-03-24T02:08:19.314Z,76.00
2019-03-24T02:09:52.158Z,75.70
2019-03-24T02:11:25.035Z,76.00
2019-03-24T02:12:57.803Z,75.60
2019-03-24T02:14:30.537Z,76.60
2019-03-24T02:16:09.238Z,76.10
2019-03-24T02:17:38.010Z,75.90
2019-03-24T02:19:10.804Z,75.90
2019-03-24T02:20:43.595Z,75.90
2019-03-24T02:22:16.449Z,75.80
2019-03-24T02:23:49.289Z,76.10
2019-03-24T02:25:21.957Z,76.10
2019-03-24T02:26:54.653Z,76.00
2019-03-24T02:28:27.478Z,76.50
2019-03-24T02:30:00.487Z,76.00
2019-03-24T02:31:33.574Z,75.90
2019-03-24T02:33:06.361Z,75.80
2019-03-24T02:34:39.153Z,75.90
2019-03-24T02:36:11.999Z,75.60
2019-03-24T02:37:44.962Z,76.20
2019-03-24T02:39:17.890Z,75.90
2019-03-24T02:40:50.982Z,75.70
2019-03-24T02:42:23.907Z,75.90
2019-03-24T02:43:56.972Z,76.20
2019-03-24T02:45:29.997Z,76.30
2019-03-24T02:47:02.935Z,76.30
2019-03-24T02:48:35.982Z,76.20
2019-03-24T02:50:09.184Z,76.30
2019-03-24T02:51:42.142Z,76.30
2019-03-24T02:53:15.172Z,76.60
2019-03-24T02:54:48.186Z,76.60
2019-03-24T02:56:21.157Z,76.60
2019-03-24T02:57:54.084Z,76.70
2019-03-24T02:59:26.994Z,76.60
2019-03-24T03:01:00.330Z,77.80
2019-03-24T03:02:33.360Z,77.10
2019-03-24T03:04:06.377Z,77.10
2019-03-24T03:05:39.410Z,76.90
2019-03-24T03:07:12.346Z,76.70
2019-03-24T03:08:45.414Z,76.70
2019-03-24T03:10:18.544Z,77.10
2019-03-24T03:11:51.638Z,76.50
2019-03-24T03:13:24.629Z,76.90
2019-03-24T03:14:57.599Z,77.10
2019-03-24T03:16:38.403Z,77.10
2019-03-24T03:18:05.562Z,76.80
2019-03-24T03:19:38.589Z,77.50
2019-03-24T03:21:11.520Z,77.30
2019-03-24T03:22:44.454Z,77.70
2019-03-24T03:24:17.410Z,77.70
2019-03-24T03:25:50.562Z,77.60
2019-03-24T03:27:23.495Z,77.50
2019-03-24T03:28:56.527Z,77.40
2019-03-24T03:30:29.595Z,77.90
2019-03-24T03:32:02.634Z,77.80
2019-03-24T03:33:35.647Z,77.60
2019-03-24T03:35:08.799Z,78.20
2019-03-24T03:36:41.814Z,77.90
2019-03-24T03:38:14.752Z,77.90
2019-03-24T03:39:47.770Z,77.80
2019-03-24T03:41:20.851Z,77.80
2019-03-24T03:42:53.874Z,77.70
2019-03-24T03:44:26.936Z,77.80
2019-03-24T03:45:59.888Z,77.20
2019-03-24T03:47:32.907Z,76.90
2019-03-24T03:49:05.947Z,77.10
2019-03-24T03:50:38.895Z,77.20
2019-03-24T03:52:11.913Z,77.50
2019-03-24T03:53:44.831Z,78.20
2019-03-24T03:55:17.779Z,78.10
2019-03-24T03:56:50.710Z,77.90
2019-03-24T03:58:23.764Z,78.00
2019-03-24T03:59:56.794Z,77.70
2019-03-24T04:01:29.834Z,77.60
2019-03-24T04:03:03.491Z,77.70
2019-03-24T04:04:36.463Z,78.20
2019-03-24T04:06:09.501Z,77.60
2019-03-24T04:07:42.425Z,78.00
2019-03-24T04:09:15.355Z,78.10
2019-03-24T04:10:48.421Z,78.10
2019-03-24T04:12:21.344Z,78.30
2019-03-24T04:13:54.266Z,78.10
2019-03-24T04:15:27.245Z,78.00
2019-03-24T04:17:06.901Z,78.00
2019-03-24T04:18:35.117Z,79.30
2019-03-24T04:20:08.188Z,78.70
2019-03-24T04:21:41.207Z,78.50
2019-03-24T04:23:14.247Z,78.70
2019-03-24T04:24:47.174Z,78.30
2019-03-24T04:26:20.119Z,78.60
2019-03-24T04:27:53.150Z,78.60
2019-03-24T04:29:26.189Z,78.10
2019-03-24T04:30:59.159Z,78.30
2019-03-24T04:32:32.083Z,78.10
2019-03-24T04:34:05.001Z,78.10
2019-03-24T04:35:38.022Z,79.30
2019-03-24T04:37:11.053Z,78.60
2019-03-24T04:38:44.123Z,78.40
2019-03-24T04:40:17.058Z,78.70
2019-03-24T04:41:50.007Z,78.50
2019-03-24T04:43:22.939Z,78.50
2019-03-24T04:44:55.857Z,78.60
2019-03-24T04:46:28.792Z,78.60
2019-03-24T04:48:01.822Z,78.70
2019-03-24T04:49:34.862Z,79.00
2019-03-24T04:51:07.913Z,78.60
2019-03-24T04:52:40.961Z,78.70
2019-03-24T04:54:13.915Z,78.80
2019-03-24T04:55:46.833Z,78.60
2019-03-24T04:57:19.757Z,78.70
2019-03-24T04:58:52.705Z,79.00
2019-03-24T05:00:36.772Z,79.40
2019-03-24T05:02:09.800Z,78.90
2019-03-24T05:03:42.755Z,78.90
2019-03-24T05:05:15.765Z,79.10
2019-03-24T05:06:49.321Z,78.90
2019-03-24T05:08:24.282Z,78.90
2019-03-24T05:09:57.545Z,78.90
2019-03-24T05:11:30.562Z,78.60
2019-03-24T05:13:03.491Z,78.70
2019-03-24T05:14:36.421Z,79.00
2019-03-24T05:16:09.362Z,79.10
2019-03-24T05:17:42.287Z,79.20
2019-03-24T05:19:15.239Z,79.40
2019-03-24T05:20:48.245Z,79.40
2019-03-24T05:22:21.187Z,79.50
2019-03-24T05:23:54.120Z,79.50
2019-03-24T05:25:27.069Z,79.30
2019-03-24T05:27:00.377Z,79.40
2019-03-24T05:28:33.293Z,79.20
2019-03-24T05:30:06.261Z,78.90
2019-03-24T05:31:39.194Z,79.00
2019-03-24T05:33:12.158Z,79.10
2019-03-24T05:34:45.151Z,79.40
2019-03-24T05:36:18.145Z,79.40
2019-03-24T05:37:51.102Z,79.20
2019-03-24T05:39:24.122Z,79.00
2019-03-24T05:40:57.065Z,79.00
2019-03-24T05:42:30.012Z,79.40
2019-03-24T05:44:03.031Z,79.50
2019-03-24T05:45:35.961Z,79.90
2019-03-24T05:47:08.942Z,80.30
2019-03-24T05:48:41.961Z,80.30
2019-03-24T05:50:14.898Z,79.70
2019-03-24T05:51:47.850Z,80.00
2019-03-24T05:53:20.791Z,80.20
2019-03-24T05:54:53.745Z,80.00
2019-03-24T05:56:26.766Z,79.90
2019-03-24T05:57:59.718Z,80.70
2019-03-24T05:59:32.647Z,80.00
2019-03-24T06:01:05.584Z,80.30
2019-03-24T06:02:38.631Z,80.20
2019-03-24T06:04:11.558Z,80.60
2019-03-24T06:05:44.581Z,80.40
2019-03-24T06:07:17.503Z,80.50
2019-03-24T06:08:50.466Z,80.60
2019-03-24T06:10:23.376Z,81.00
2019-03-24T06:11:56.286Z,81.10
2019-03-24T06:13:29.234Z,81.40
2019-03-24T06:15:02.159Z,80.90
2019-03-24T06:16:35.253Z,81.00
2019-03-24T06:18:08.209Z,80.70
2019-03-24T06:19:41.121Z,80.50
2019-03-24T06:21:14.057Z,80.90
2019-03-24T06:22:46.993Z,80.50
2019-03-24T06:24:20.029Z,80.70
2019-03-24T06:25:52.966Z,80.40
2019-03-24T06:27:25.898Z,80.30
2019-03-24T06:28:58.853Z,80.20
2019-03-24T06:30:31.782Z,80.00
2019-03-24T06:32:04.721Z,80.00
2019-03-24T06:33:37.638Z,80.20
2019-03-24T06:35:10.694Z,80.00
2019-03-24T06:36:43.617Z,79.90
2019-03-24T06:38:16.544Z,79.70
2019-03-24T06:39:49.618Z,80.60
2019-03-24T06:41:22.649Z,80.00
2019-03-24T06:42:55.575Z,80.00
2019-03-24T06:44:28.620Z,79.30
2019-03-24T06:46:01.558Z,79.60
2019-03-24T06:47:34.489Z,79.80
2019-03-24T06:49:07.427Z,80.50
2019-03-24T06:50:40.482Z,79.60
2019-03-24T06:52:13.646Z,79.90
2019-03-24T06:53:46.645Z,80.30
2019-03-24T06:55:19.602Z,80.10
2019-03-24T06:56:52.563Z,79.70
2019-03-24T06:58:25.666Z,80.00
2019-03-24T06:59:58.701Z,80.00
2019-03-24T07:01:31.729Z,79.40
2019-03-24T07:03:04.812Z,79.50
2019-03-24T07:04:37.745Z,80.00
2019-03-24T07:06:10.848Z,79.50
2019-03-24T07:07:43.869Z,79.40
2019-03-24T07:09:16.864Z,79.80
2019-03-24T07:10:49.919Z,79.50
2019-03-24T07:12:23.122Z,79.20
2019-03-24T07:13:56.186Z,79.50
2019-03-24T07:15:29.205Z,79.50
2019-03-24T07:17:03.022Z,78.90
2019-03-24T07:18:36.074Z,78.80
2019-03-24T07:20:09.433Z,79.20
2019-03-24T07:21:42.636Z,78.80
2019-03-24T07:23:15.846Z,79.80
2019-03-24T07:24:48.914Z,79.40
2019-03-24T07:26:21.931Z,78.80
2019-03-24T07:27:54.971Z,78.20
2019-03-24T07:29:27.923Z,78.10
2019-03-24T07:31:00.890Z,78.20
2019-03-24T07:32:33.930Z,78.10
2019-03-24T07:34:06.885Z,78.10
2019-03-24T07:35:39.861Z,78.00
2019-03-24T07:37:12.949Z,78.20
2019-03-24T07:38:45.910Z,78.30
2019-03-24T07:40:19.045Z,78.10
2019-03-24T07:41:52.049Z,78.10
2019-03-24T07:43:25.017Z,78.10
2019-03-24T07:44:57.947Z,78.00
2019-03-24T07:46:30.871Z,77.80
2019-03-24T07:48:03.980Z,77.60
2019-03-24T07:49:36.928Z,77.80
2019-03-24T07:51:09.870Z,77.60
2019-03-24T07:52:42.874Z,77.10
2019-03-24T07:54:15.801Z,77.30
2019-03-24T07:55:48.849Z,77.10
2019-03-24T07:57:21.783Z,77.10
2019-03-24T07:58:54.714Z,76.90
2019-03-24T08:00:37.588Z,76.80
2019-03-24T08:02:10.661Z,76.00
2019-03-24T08:03:43.696Z,75.80
2019-03-24T08:05:16.725Z,74.70
2019-03-24T08:06:49.701Z,74.10
2019-03-24T08:08:22.633Z,73.90
2019-03-24T08:09:55.538Z,73.90
2019-03-24T08:11:28.465Z,73.60
2019-03-24T08:13:01.411Z,73.20
2019-03-24T08:14:34.338Z,73.10
2019-03-24T08:16:07.282Z,72.90
2019-03-24T08:17:40.222Z,72.50
2019-03-24T08:19:13.154Z,72.60
2019-03-24T08:20:46.090Z,72.70
2019-03-24T08:22:19.226Z,72.60
2019-03-24T08:23:52.285Z,72.60
2019-03-24T08:25:25.334Z,72.40
2019-03-24T08:26:58.256Z,72.40
2019-03-24T08:28:31.269Z,72.40
2019-03-24T08:30:04.583Z,71.50
2019-03-24T08:31:37.524Z,71.00
2019-03-24T08:33:10.546Z,70.70
2019-03-24T08:34:43.462Z,70.50
2019-03-24T08:36:16.405Z,70.70
2019-03-24T08:37:49.434Z,71.00
2019-03-24T08:39:22.365Z,71.00
2019-03-24T08:40:55.313Z,70.90
2019-03-24T08:42:28.229Z,71.00
2019-03-24T08:44:01.198Z,70.80
2019-03-24T08:45:34.731Z,70.80
2019-03-24T08:47:07.750Z,71.00
2019-03-24T08:48:41.357Z,70.90
2019-03-24T08:50:14.532Z,71.80
2019-03-24T08:51:47.506Z,70.70
2019-03-24T08:53:20.441Z,70.00
2019-03-24T08:54:53.498Z,69.60
2019-03-24T08:56:26.441Z,69.30
2019-03-24T08:57:59.361Z,69.00
2019-03-24T08:59:32.286Z,68.80
2019-03-24T09:01:05.258Z,68.50
2019-03-24T09:02:38.529Z,68.20
2019-03-24T09:04:11.554Z,67.70
2019-03-24T09:05:44.523Z,67.70
2019-03-24T09:07:17.525Z,67.10
2019-03-24T09:08:50.765Z,66.60
2019-03-24T09:10:26.139Z,66.60
2019-03-24T09:11:59.394Z,66.30
2019-03-24T09:13:32.430Z,65.60
2019-03-24T09:15:05.553Z,65.10
2019-03-24T09:16:38.523Z,64.40
2019-03-24T09:18:11.456Z,64.40
2019-03-24T09:19:44.373Z,64.40
2019-03-24T09:21:19.550Z,63.90
2019-03-24T09:22:52.190Z,64.40
2019-03-24T09:24:25.090Z,62.90
2019-03-24T09:25:58.046Z,62.80
2019-03-24T09:27:30.990Z,62.30
2019-03-24T09:29:03.988Z,61.70
2019-03-24T09:30:37.866Z,61.50
2019-03-24T09:32:11.071Z,62.00
2019-03-24T09:33:44.182Z,61.70
2019-03-24T09:35:17.170Z,61.70
2019-03-24T09:36:50.095Z,61.00
2019-03-24T09:38:23.033Z,61.40
2019-03-24T09:39:55.974Z,61.50
2019-03-24T09:41:28.994Z,61.10
2019-03-24T09:43:02.824Z,61.10
2019-03-24T09:44:35.770Z,61.00
2019-03-24T09:46:08.710Z,61.30
2019-03-24T09:47:41.734Z,61.50
2019-03-24T09:49:14.671Z,61.40
2019-03-24T09:50:47.718Z,61.50
2019-03-24T09:52:20.681Z,61.20
2019-03-24T09:53:53.722Z,61.40
2019-03-24T09:55:26.653Z,61.40
2019-03-24T09:56:59.570Z,61.40
2019-03-24T09:58:32.512Z,61.40
2019-03-24T10:00:05.650Z,61.60
2019-03-24T10:01:38.642Z,61.40
2019-03-24T10:03:11.615Z,61.00
2019-03-24T10:04:44.566Z,60.70
2019-03-24T10:06:17.506Z,60.30
2019-03-24T10:07:50.425Z,60.10
2019-03-24T10:09:23.349Z,59.70
2019-03-24T10:10:56.339Z,59.70
2019-03-24T10:12:29.353Z,59.70
2019-03-24T10:14:02.300Z,60.10
2019-03-24T10:15:35.353Z,59.80
2019-03-24T10:17:08.285Z,60.00
2019-03-24T10:18:41.219Z,59.70
2019-03-24T10:20:14.285Z,59.90
2019-03-24T10:21:47.296Z,59.70
2019-03-24T10:23:20.260Z,59.40
2019-03-24T10:24:53.220Z,59.50
2019-03-24T10:26:26.161Z,59.60
2019-03-24T10:27:59.193Z,59.50
2019-03-24T10:29:32.110Z,59.70
2019-03-24T10:31:05.062Z,58.90
2019-03-24T10:32:38.024Z,58.70
2019-03-24T10:34:10.949Z,57.90
2019-03-24T10:35:43.900Z,57.90
2019-03-24T10:37:16.958Z,57.70
2019-03-24T10:38:49.962Z,57.10
2019-03-24T10:40:28.646Z,57.20
2019-03-24T10:41:57.726Z,57.10
2019-03-24T10:43:30.661Z,56.70
2019-03-24T10:45:03.985Z,57.10
2019-03-24T10:46:36.943Z,57.20
2019-03-24T10:48:09.870Z,56.90
2019-03-24T10:49:42.808Z,56.90
2019-03-24T10:51:15.774Z,56.60
2019-03-24T10:52:48.970Z,56.90
2019-03-24T10:54:22.531Z,57.10
2019-03-24T10:55:55.778Z,56.70
2019-03-24T10:57:28.818Z,56.80
2019-03-24T10:59:01.775Z,57.10
2019-03-24T11:00:44.308Z,57.10
2019-03-24T11:02:17.365Z,57.00
2019-03-24T11:03:50.316Z,56.50
2019-03-24T11:05:23.281Z,56.30
2019-03-24T11:06:56.408Z,56.40
2019-03-24T11:08:29.417Z,57.10
2019-03-24T11:10:02.378Z,56.90
2019-03-24T11:11:35.349Z,56.30
2019-03-24T11:13:08.375Z,56.10
2019-03-24T11:14:41.304Z,55.90
2019-03-24T11:16:14.256Z,56.10
2019-03-24T11:17:47.588Z,56.00
2019-03-24T11:19:20.752Z,56.10
2019-03-24T11:20:53.739Z,56.20
2019-03-24T11:22:26.678Z,56.30
2019-03-24T11:23:59.657Z,55.60
2019-03-24T11:25:32.704Z,55.10
2019-03-24T11:27:05.785Z,54.90
2019-03-24T11:28:38.761Z,55.20
2019-03-24T11:30:12.488Z,55.80
2019-03-24T11:31:45.306Z,55.50
2019-03-24T11:33:18.135Z,54.70
2019-03-24T11:34:50.932Z,55.10
2019-03-24T11:36:23.803Z,55.10
2019-03-24T11:37:56.498Z,55.30
2019-03-24T11:39:29.268Z,55.10
2019-03-24T11:41:02.189Z,56.00
2019-03-24T11:42:35.144Z,55.10
2019-03-24T11:44:07.861Z,54.80
2019-03-24T11:45:40.713Z,54.90
2019-03-24T11:47:13.345Z,54.70
2019-03-24T11:48:46.212Z,54.90
2019-03-24T11:50:19.040Z,54.70
2019-03-24T11:51:51.718Z,54.80
2019-03-24T11:53:24.561Z,55.10
2019-03-24T11:54:57.482Z,55.00
2019-03-24T11:56:30.307Z,54.90
2019-03-24T11:58:06.010Z,54.40
2019-03-24T11:59:37.547Z,54.40
2019-03-24T12:01:10.340Z,54.40
2019-03-24T12:02:43.232Z,54.50
2019-03-24T12:04:16.045Z,53.80
2019-03-24T12:05:48.766Z,54.10
2019-03-24T12:07:21.529Z,54.30
2019-03-24T12:08:54.375Z,54.50
2019-03-24T12:10:27.237Z,54.40
2019-03-24T12:12:00.118Z,54.40
2019-03-24T12:13:32.937Z,54.40
2019-03-24T12:15:05.866Z,54.40
2019-03-24T12:16:38.794Z,55.00
2019-03-24T12:18:11.687Z,54.00
2019-03-24T12:19:44.388Z,53.70
2019-03-24T12:21:17.263Z,53.40
2019-03-24T12:22:50.084Z,53.20
2019-03-24T12:24:22.780Z,53.60
2019-03-24T12:25:55.425Z,53.50
2019-03-24T12:27:28.084Z,54.20
2019-03-24T12:29:00.889Z,54.50
2019-03-24T12:30:33.708Z,54.10
2019-03-24T12:32:06.528Z,54.30
2019-03-24T12:33:39.376Z,54.40
2019-03-24T12:35:12.202Z,54.30
2019-03-24T12:36:44.872Z,54.70
2019-03-24T12:38:17.581Z,54.80
2019-03-24T12:39:50.390Z,55.00
2019-03-24T12:41:23.226Z,54.80
2019-03-24T12:42:56.190Z,54.70
2019-03-24T12:44:28.998Z,54.60
2019-03-24T12:46:01.884Z,55.10
2019-03-24T12:47:34.672Z,54.60
2019-03-24T12:49:07.549Z,54.30
2019-03-24T12:50:40.248Z,53.80
2019-03-24T12:52:13.304Z,53.90
2019-03-24T12:53:46.087Z,53.80
2019-03-24T12:55:18.885Z,54.00
2019-03-24T12:56:51.643Z,53.90
2019-03-24T12:58:24.502Z,53.30
2019-03-24T12:59:57.376Z,53.30
2019-03-24T13:01:30.236Z,53.30
2019-03-24T13:03:03.300Z,52.90
2019-03-24T13:04:36.175Z,53.20
2019-03-24T13:06:09.030Z,53.00
2019-03-24T13:07:41.832Z,52.90
2019-03-24T13:09:14.715Z,53.30
2019-03-24T13:10:47.840Z,53.40
2019-03-24T13:12:20.545Z,53.60
2019-03-24T13:13:53.390Z,53.70
2019-03-24T13:15:26.120Z,53.30
2019-03-24T13:16:58.974Z,53.80
2019-03-24T13:18:31.900Z,53.60
2019-03-24T13:20:05.190Z,53.50
2019-03-24T13:21:37.999Z,53.60
2019-03-24T13:23:10.862Z,54.00
2019-03-24T13:24:43.638Z,53.60
2019-03-24T13:26:16.431Z,53.70
2019-03-24T13:27:49.260Z,54.40
2019-03-24T13:29:21.993Z,53.50
2019-03-24T13:30:54.828Z,53.60
2019-03-24T13:32:27.645Z,53.80
2019-03-24T13:34:00.470Z,54.00
2019-03-24T13:35:33.143Z,53.70
2019-03-24T13:37:05.943Z,53.60
2019-03-24T13:38:38.778Z,53.60
2019-03-24T13:40:11.431Z,53.40
2019-03-24T13:41:44.278Z,53.50
2019-03-24T13:43:17.063Z,53.50
2019-03-24T13:44:49.901Z,53.70
2019-03-24T13:46:22.752Z,53.70
2019-03-24T13:47:55.722Z,53.80
2019-03-24T13:49:28.397Z,53.40
2019-03-24T13:51:01.075Z,53.20
2019-03-24T13:52:33.891Z,53.30
2019-03-24T13:54:06.551Z,53.70
2019-03-24T13:55:39.386Z,53.40
2019-03-24T13:57:12.236Z,53.50
2019-03-24T13:58:45.060Z,53.50
2019-03-24T14:00:26.997Z,53.60
2019-03-24T14:01:59.808Z,53.40
2019-03-24T14:03:32.623Z,53.50
2019-03-24T14:05:05.548Z,53.30
2019-03-24T14:06:38.349Z,53.20
2019-03-24T14:08:11.174Z,53.00
2019-03-24T14:09:44.032Z,53.20
2019-03-24T14:11:16.844Z,52.70
2019-03-24T14:12:49.749Z,52.90
2019-03-24T14:14:22.661Z,53.10
2019-03-24T14:15:57.444Z,53.20
2019-03-24T14:17:30.343Z,53.10
2019-03-24T14:19:03.163Z,52.60
2019-03-24T14:20:43.226Z,53.00
2019-03-24T14:22:10.748Z,53.40
2019-03-24T14:23:43.575Z,53.20
2019-03-24T14:25:16.385Z,53.40
2019-03-24T14:26:49.063Z,53.40
2019-03-24T14:28:21.952Z,53.20
2019-03-24T14:29:54.815Z,53.40
2019-03-24T14:31:27.678Z,53.30
2019-03-24T14:33:00.420Z,53.70
2019-03-24T14:34:33.350Z,53.70
2019-03-24T14:36:06.173Z,53.80
2019-03-24T14:37:39.018Z,53.70
2019-03-24T14:39:11.904Z,53.60
2019-03-24T14:40:44.855Z,53.80
2019-03-24T14:42:24.540Z,54.10
2019-03-24T14:43:57.363Z,53.80
2019-03-24T14:45:30.270Z,54.30
2019-03-24T14:47:03.125Z,54.10
2019-03-24T14:48:36.324Z,54.30
2019-03-24T14:50:09.528Z,54.20
2019-03-24T14:51:42.339Z,53.90
2019-03-24T14:53:16.879Z,54.10
2019-03-24T14:54:49.837Z,53.90
2019-03-24T14:56:22.647Z,54.00
2019-03-24T14:57:55.477Z,54.10
2019-03-24T14:59:28.196Z,53.70
2019-03-24T15:01:00.896Z,53.60
2019-03-24T15:02:33.548Z,53.70
2019-03-24T15:04:06.349Z,54.40
2019-03-24T15:05:39.206Z,53.80
2019-03-24T15:07:12.582Z,53.90
2019-03-24T15:08:45.705Z,53.70
2019-03-24T15:10:18.544Z,53.20
2019-03-24T15:11:51.402Z,53.30
2019-03-24T15:13:24.205Z,53.50
2019-03-24T15:14:59.486Z,53.70
2019-03-24T15:16:32.257Z,54.00
2019-03-24T15:18:04.933Z,54.20
2019-03-24T15:19:37.709Z,54.40
2019-03-24T15:21:16.273Z,54.40
2019-03-24T15:22:49.060Z,54.60
2019-03-24T15:24:21.828Z,54.80
2019-03-24T15:25:54.664Z,54.90
2019-03-24T15:27:27.455Z,54.90
2019-03-24T15:29:00.258Z,55.10
2019-03-24T15:30:33.107Z,55.20
2019-03-24T15:32:05.949Z,55.20
2019-03-24T15:33:38.757Z,55.40
2019-03-24T15:35:11.461Z,55.30
2019-03-24T15:36:44.277Z,55.40
2019-03-24T15:38:20.888Z,55.50
2019-03-24T15:39:58.760Z,55.70
2019-03-24T15:41:31.539Z,55.60
2019-03-24T15:43:04.550Z,55.80
2019-03-24T15:44:37.959Z,55.90
2019-03-24T15:46:10.779Z,56.00
2019-03-24T15:47:43.612Z,55.90
2019-03-24T15:49:17.271Z,55.90
2019-03-24T15:50:50.606Z,55.80
2019-03-24T15:52:23.541Z,55.90
2019-03-24T15:53:56.399Z,55.90
2019-03-24T15:55:29.186Z,56.10
2019-03-24T15:57:01.977Z,56.10
2019-03-24T15:58:34.808Z,56.30
2019-03-24T16:00:08.936Z,56.20
2019-03-24T16:01:41.692Z,56.20
2019-03-24T16:03:14.521Z,56.30
2019-03-24T16:04:47.180Z,56.60
2019-03-24T16:06:20.080Z,56.90
2019-03-24T16:07:52.849Z,56.90
2019-03-24T16:09:25.664Z,56.90
2019-03-24T16:10:58.405Z,57.00
2019-03-24T16:12:31.259Z,56.90
2019-03-24T16:14:05.737Z,57.10
2019-03-24T16:15:39.171Z,57.10
2019-03-24T16:17:14.474Z,57.20
2019-03-24T16:18:48.414Z,57.20
2019-03-24T16:20:21.415Z,57.30
2019-03-24T16:21:55.312Z,57.30
2019-03-24T16:23:28.181Z,57.30
2019-03-24T16:25:01.355Z,57.30
2019-03-24T16:26:34.226Z,57.20
2019-03-24T16:28:07.048Z,57.30
2019-03-24T16:29:39.882Z,57.40
2019-03-24T16:31:12.765Z,57.50
2019-03-24T16:32:52.481Z,57.60
2019-03-24T16:34:25.216Z,57.70
2019-03-24T16:35:58.102Z,57.90
2019-03-24T16:37:30.857Z,58.00
2019-03-24T16:39:05.370Z,58.20
2019-03-24T16:40:38.063Z,58.20
2019-03-24T16:42:10.906Z,58.40
2019-03-24T16:43:43.833Z,58.40
2019-03-24T16:45:16.632Z,58.50
2019-03-24T16:46:49.501Z,58.70
2019-03-24T16:48:22.321Z,58.50
2019-03-24T16:49:55.157Z,58.40
2019-03-24T16:51:38.145Z,58.20
2019-03-24T16:53:04.740Z,58.30
2019-03-24T16:54:37.536Z,58.20
2019-03-24T16:56:10.191Z,58.20
2019-03-24T16:57:43.005Z,58.20
2019-03-24T16:59:15.824Z,58.30
2019-03-24T17:00:48.612Z,58.40
2019-03-24T17:02:21.422Z,58.30
2019-03-24T17:03:54.274Z,58.50
2019-03-24T17:05:27.063Z,58.80
2019-03-24T17:06:59.847Z,58.50
2019-03-24T17:08:32.647Z,58.50
2019-03-24T17:10:08.021Z,58.60
2019-03-24T17:11:40.825Z,58.70
2019-03-24T17:13:13.512Z,58.80
2019-03-24T17:14:46.323Z,58.90
2019-03-24T17:16:19.255Z,59.00
2019-03-24T17:17:52.111Z,59.10
2019-03-24T17:19:24.905Z,59.30
2019-03-24T17:20:57.820Z,59.20
2019-03-24T17:22:30.686Z,59.30
2019-03-24T17:24:03.498Z,59.30
2019-03-24T17:25:36.192Z,59.30
2019-03-24T17:27:08.870Z,59.20
2019-03-24T17:28:41.705Z,59.40
2019-03-24T17:30:14.823Z,59.60
2019-03-24T17:31:47.545Z,59.60
2019-03-24T17:33:20.206Z,59.80
2019-03-24T17:34:53.050Z,59.90
2019-03-24T17:36:25.881Z,59.90
2019-03-24T17:37:58.556Z,60.20
2019-03-24T17:39:31.338Z,60.20
2019-03-24T17:41:04.157Z,60.40
2019-03-24T17:42:36.953Z,60.30
2019-03-24T17:44:09.837Z,60.60
2019-03-24T17:45:42.659Z,60.50
2019-03-24T17:47:15.544Z,60.70
2019-03-24T17:48:48.460Z,60.80
2019-03-24T17:50:21.363Z,60.90
2019-03-24T17:52:00.637Z,61.00
2019-03-24T17:53:28.755Z,61.00
2019-03-24T17:55:01.540Z,61.20
2019-03-24T17:56:34.374Z,61.20
2019-03-24T17:58:07.350Z,61.20
2019-03-24T17:59:40.227Z,61.50
2019-03-24T18:01:13.235Z,61.50
2019-03-24T18:02:45.937Z,61.60
2019-03-24T18:04:24.682Z,61.80
2019-03-24T18:05:54.172Z,61.90
2019-03-24T18:07:27.000Z,61.90
2019-03-24T18:08:59.953Z,62.10
2019-03-24T18:10:32.622Z,62.10
2019-03-24T18:12:05.412Z,62.30
2019-03-24T18:13:38.386Z,62.10
2019-03-24T18:15:11.750Z,62.20
2019-03-24T18:16:44.584Z,62.20
2019-03-24T18:18:17.531Z,62.40
2019-03-24T18:19:50.335Z,62.50
2019-03-24T18:21:23.205Z,62.60
2019-03-24T18:22:56.143Z,62.50
2019-03-24T18:24:29.127Z,62.80
2019-03-24T18:26:01.909Z,62.90
2019-03-24T18:27:34.872Z,63.10
2019-03-24T18:29:07.711Z,63.10
2019-03-24T18:30:40.500Z,63.00
2019-03-24T18:32:13.423Z,64.00
2019-03-24T18:33:46.239Z,63.00
2019-03-24T18:35:19.065Z,63.00
2019-03-24T18:36:51.755Z,63.90
2019-03-24T18:38:24.517Z,63.30
2019-03-24T18:39:57.271Z,63.40
2019-03-24T18:41:30.026Z,63.40
2019-03-24T18:43:03.199Z,63.50
2019-03-24T18:44:36.091Z,63.40
2019-03-24T18:46:08.884Z,63.70
2019-03-24T18:47:41.663Z,63.50
2019-03-24T18:49:14.551Z,63.60
2019-03-24T18:50:47.358Z,63.60
2019-03-24T18:52:22.849Z,63.60
2019-03-24T18:53:54.764Z,63.70
2019-03-24T18:55:27.596Z,63.90
2019-03-24T18:57:00.477Z,63.80
2019-03-24T18:58:33.248Z,63.80
2019-03-24T19:00:06.364Z,63.90
2019-03-24T19:01:41.700Z,63.90
2019-03-24T19:03:14.450Z,64.20
2019-03-24T19:04:47.229Z,64.10
2019-03-24T19:06:20.075Z,64.00
2019-03-24T19:07:52.897Z,64.00
2019-03-24T19:09:25.707Z,64.10
2019-03-24T19:10:58.488Z,64.00
2019-03-24T19:12:31.338Z,63.90
2019-03-24T19:14:04.185Z,64.00
2019-03-24T19:15:37.551Z,64.30
2019-03-24T19:17:10.383Z,64.20
2019-03-24T19:18:43.194Z,64.20
2019-03-24T19:20:16.686Z,64.40
2019-03-24T19:21:49.492Z,64.40
2019-03-24T19:23:22.392Z,64.60
2019-03-24T19:24:55.204Z,64.50
2019-03-24T19:26:28.004Z,64.60
2019-03-24T19:28:00.850Z,64.40
2019-03-24T19:29:33.666Z,64.30
2019-03-24T19:31:06.449Z,64.40
2019-03-24T19:32:39.469Z,64.20
2019-03-24T19:34:12.276Z,64.40
2019-03-24T19:35:45.669Z,64.20
2019-03-24T19:37:18.843Z,64.40
2019-03-24T19:38:52.530Z,64.40
2019-03-24T19:40:27.014Z,64.50
2019-03-24T19:42:00.145Z,64.40
2019-03-24T19:43:32.921Z,64.40
2019-03-24T19:45:05.722Z,64.40
2019-03-24T19:46:38.498Z,64.40
2019-03-24T19:48:11.313Z,64.40
2019-03-24T19:49:44.120Z,64.20
2019-03-24T19:51:16.893Z,64.10
2019-03-24T19:52:49.674Z,64.10
2019-03-24T19:54:22.564Z,64.10
2019-03-24T19:55:55.303Z,64.00
2019-03-24T19:57:28.108Z,63.80
2019-03-24T19:59:00.917Z,63.80